Time;durP1;ratioP1;P1;durP2;ratioP2;P2;SDS_P1;SDS_P2;PMS_P1;PMS_P2;Temp;Humidity;BMP_temperature;BMP_pressure;BME280_temperature;BME280_humidity;BME280_pressure;Samples;Min_cycle;Max_cycle;Signal;HPM_P1;HPM_P2
2022/03/14 00:02:25;;;;;;;12.17;10.90;;;12.80;26.10;;;;;;20920;6723;117737;-76
2022/03/14 00:05:00;;;;;;;13.10;11.90;;;12.70;26.00;;;;;;20959;6717;117192;-74
2022/03/14 00:07:38;;;;;;;12.87;11.70;;;12.50;26.30;;;;;;20961;6717;118232;-75
2022/03/14 00:10:15;;;;;;;13.37;12.07;;;12.00;26.90;;;;;;20927;6718;117233;-74
2022/03/14 00:12:57;;;;;;;15.23;13.73;;;11.90;26.80;;;;;;20727;6723;308797;-74
2022/03/14 00:15:36;;;;;;;12.97;11.67;;;12.20;27.70;;;;;;20934;6720;117018;-74
2022/03/14 00:18:03;;;;;;;13.40;11.50;;;12.20;27.40;;;;;;20982;6717;118400;-75
2022/03/14 00:20:39;;;;;;;15.27;13.88;;;12.00;27.40;;;;;;20686;6716;318876;-77
2022/03/14 00:23:16;;;;;;;14.40;13.00;;;12.20;27.60;;;;;;20942;6716;117577;-74
2022/03/14 00:25:50;;;;;;;15.32;13.88;;;12.20;27.30;;;;;;20740;6717;276080;-74
2022/03/14 00:28:24;;;;;;;13.40;12.20;;;12.40;27.00;;;;;;20909;6732;117130;-75
2022/03/14 00:31:00;;;;;;;14.37;12.97;;;12.40;26.80;;;;;;20836;6723;117546;-76
2022/03/14 00:33:36;;;;;;;14.23;12.98;;;12.20;26.90;;;;;;20718;6723;310303;-75
2022/03/14 00:36:11;;;;;;;13.60;12.50;;;12.40;26.70;;;;;;20751;6723;276334;-77
2022/03/14 00:38:47;;;;;;;14.17;12.67;;;12.80;26.50;;;;;;20889;6738;118249;-75
2022/03/14 00:41:22;;;;;;;14.33;13.00;;;12.70;26.50;;;;;;20596;6723;336727;-77
2022/03/14 00:43:58;;;;;;;12.17;11.07;;;12.90;26.90;;;;;;20876;6741;124060;-77
2022/03/14 00:46:36;;;;;;;12.87;11.57;;;12.80;26.80;;;;;;20876;6741;117260;-74
2022/03/14 00:49:09;;;;;;;13.00;11.50;;;12.40;26.90;;;;;;20857;6741;117693;-75
2022/03/14 00:51:45;;;;;;;13.37;11.60;;;12.20;27.30;;;;;;20744;6738;118234;-74
2022/03/14 00:54:20;;;;;;;14.13;12.82;;;12.00;27.60;;;;;;20754;6716;276409;-74
2022/03/14 00:56:56;;;;;;;13.90;12.60;;;12.20;27.90;;;;;;20673;6739;277228;-74
2022/03/14 00:59:31;;;;;;;13.30;11.80;;;12.50;27.40;;;;;;20960;6724;117378;-77
2022/03/14 01:02:08;;;;;;;12.50;11.20;;;12.10;27.80;;;;;;20649;6758;117637;-77
2022/03/14 01:04:43;;;;;;;14.30;13.00;;;12.10;27.70;;;;;;20694;6733;276168;-75
2022/03/14 01:07:19;;;;;;;14.00;12.60;;;12.20;28.40;;;;;;20895;6729;120795;-74
2022/03/14 01:09:54;;;;;;;15.10;13.80;;;12.10;28.40;;;;;;20673;6733;330155;-75
2022/03/14 01:12:30;;;;;;;13.80;11.97;;;12.20;28.90;;;;;;20878;6739;117070;-75
2022/03/14 01:15:06;;;;;;;15.53;13.23;;;12.00;28.70;;;;;;20766;6769;117360;-75
2022/03/14 01:17:42;;;;;;;14.63;12.77;;;11.70;29.00;;;;;;20884;6739;123574;-74
2022/03/14 01:20:19;;;;;;;16.93;15.13;;;11.50;29.80;;;;;;20562;6759;277933;-75
2022/03/14 01:22:56;;;;;;;15.77;14.27;;;11.70;30.50;;;;;;20820;6759;117248;-74
2022/03/14 01:25:29;;;;;;;17.77;16.08;;;11.70;30.40;;;;;;20568;6759;334743;-77
2022/03/14 01:28:04;;;;;;;18.95;17.05;;;11.90;31.60;;;;;;20581;6771;294683;-77
2022/03/14 01:30:41;;;;;;;18.63;16.87;;;12.60;31.90;;;;;;20579;6741;308124;-77
2022/03/14 01:33:18;;;;;;;17.30;15.60;;;12.60;31.80;;;;;;20882;6741;117791;-75
2022/03/14 01:35:53;;;;;;;17.60;15.93;;;12.40;31.50;;;;;;20882;6741;117232;-74
2022/03/14 01:38:29;;;;;;;16.43;14.90;;;12.20;31.90;;;;;;20783;6770;117560;-74
2022/03/14 01:41:04;;;;;;;20.02;18.12;;;12.00;32.40;;;;;;20557;6739;337397;-74
2022/03/14 01:43:40;;;;;;;17.80;16.20;;;12.20;34.90;;;;;;20821;6758;118016;-75
2022/03/14 01:46:16;;;;;;;18.20;16.40;;;12.20;34.10;;;;;;20835;6754;117345;-75
2022/03/14 01:48:53;;;;;;;18.83;16.87;;;11.90;34.30;;;;;;20890;6737;117224;-77
2022/03/14 01:51:37;;;;;;;17.87;15.93;;;11.90;34.30;;;;;;20762;6733;119123;-75
2022/03/14 01:54:04;;;;;;;19.40;17.40;;;11.80;35.00;;;;;;20832;6758;116340;-74
2022/03/14 01:56:41;;;;;;;17.37;15.67;;;11.70;35.40;;;;;;20906;6733;117351;-77
2022/03/14 01:59:17;;;;;;;18.47;16.67;;;11.70;35.80;;;;;;20849;6744;117504;-75
2022/03/14 02:01:53;;;;;;;20.50;18.70;;;11.70;36.20;;;;;;20516;6744;341968;-75
2022/03/14 02:04:29;;;;;;;18.83;17.03;;;12.20;38.50;;;;;;20836;6754;121167;-74
2022/03/14 02:07:04;;;;;;;19.43;17.63;;;12.10;38.40;;;;;;20833;6748;140624;-77
2022/03/14 02:09:40;;;;;;;20.53;17.73;;;12.10;37.90;;;;;;20852;6749;121354;-77
2022/03/14 02:12:18;;;;;;;19.30;17.40;;;12.00;37.90;;;;;;20613;6825;117726;-74
2022/03/14 02:14:51;;;;;;;20.92;19.12;;;11.90;37.90;;;;;;20589;6768;307333;-75
2022/03/14 02:17:27;;;;;;;18.87;17.07;;;12.20;40.20;;;;;;20789;6766;117906;-77
2022/03/14 02:20:05;;;;;;;19.37;17.37;;;12.20;38.80;;;;;;20775;6769;117373;-77
2022/03/14 02:22:40;;;;;;;22.00;19.90;;;12.20;38.80;;;;;;20636;6751;306314;-75
2022/03/14 02:25:16;;;;;;;18.33;16.63;;;12.50;42.40;;;;;;20766;6769;118277;-76
2022/03/14 02:27:52;;;;;;;20.85;18.95;;;12.60;44.60;;;;;;20670;6736;340600;-75
2022/03/14 02:30:29;;;;;;;17.37;15.63;;;12.60;44.60;;;;;;20812;6746;117370;-76
2022/03/14 02:33:05;;;;;;;16.93;13.77;;;12.50;43.00;;;;;;20772;6769;121345;-74
2022/03/14 02:35:41;;;;;;;16.07;14.47;;;12.20;42.90;;;;;;20890;6737;117551;-75
2022/03/14 02:38:16;;;;;;;16.20;14.80;;;11.90;43.10;;;;;;20755;6714;306986;-76
2022/03/14 02:40:51;;;;;;;12.53;11.43;;;12.00;47.10;;;;;;20886;6714;117133;-75
2022/03/14 02:43:27;;;;;;;13.45;12.35;;;11.90;45.70;;;;;;20625;6746;311833;-73
2022/03/14 02:46:04;;;;;;;12.67;11.47;;;12.10;48.30;;;;;;20628;6751;306869;-74
2022/03/14 02:48:40;;;;;;;9.93;8.93;;;12.40;48.70;;;;;;20964;6721;117526;-73
2022/03/14 02:51:15;;;;;;;9.83;9.13;;;12.20;47.40;;;;;;20765;6738;122114;-74
2022/03/14 02:53:50;;;;;;;11.13;10.33;;;11.90;47.10;;;;;;20712;6724;305559;-77
2022/03/14 02:56:26;;;;;;;10.57;9.57;;;12.00;50.10;;;;;;20855;6749;121701;-74
2022/03/14 02:59:01;;;;;;;9.70;8.90;;;11.90;49.00;;;;;;20921;6721;117182;-74
2022/03/14 03:01:37;;;;;;;6.73;6.13;;;11.60;48.70;;;;;;20828;6721;117341;-74
2022/03/14 03:04:15;;;;;;;7.60;6.90;;;11.40;48.50;;;;;;20946;6721;116986;-74
2022/03/14 03:06:49;;;;;;;5.93;5.53;;;11.40;51.10;;;;;;20738;6706;310107;-76
2022/03/14 03:09:30;;;;;;;4.17;3.97;;;11.40;51.10;;;;;;20913;6732;119645;-74
2022/03/14 03:12:04;;;;;;;3.70;3.50;;;11.20;49.00;;;;;;20731;6736;117193;-74
2022/03/14 03:14:40;;;;;;;2.90;2.80;;;11.20;48.90;;;;;;20801;6759;117313;-74
2022/03/14 03:17:15;;;;;;;3.30;3.10;;;11.00;48.70;;;;;;20627;6745;337357;-73
2022/03/14 03:19:51;;;;;;;3.40;3.00;;;11.30;51.30;;;;;;20925;6723;120692;-74
2022/03/14 03:22:27;;;;;;;3.50;3.30;;;11.50;51.50;;;;;;20676;6738;306030;-74
2022/03/14 03:25:03;;;;;;;2.70;2.60;;;11.50;51.40;;;;;;20913;6724;127416;-77
2022/03/14 03:27:40;;;;;;;3.20;3.00;;;11.50;50.10;;;;;;20877;6739;118714;-74
2022/03/14 03:30:19;;;;;;;2.87;2.77;;;11.30;49.70;;;;;;20838;6736;116914;-74
2022/03/14 03:32:51;;;;;;;2.77;2.67;;;11.10;49.70;;;;;;20938;6732;121542;-73
2022/03/14 03:35:27;;;;;;;2.90;2.80;;;11.00;49.70;;;;;;20636;6749;276083;-73
2022/03/14 03:38:03;;;;;;;3.00;2.60;;;11.30;52.20;;;;;;20892;6736;117006;-78
2022/03/14 03:40:38;;;;;;;3.47;3.08;;;11.30;51.00;;;;;;20574;6751;312465;-77
2022/03/14 03:43:15;;;;;;;3.25;3.05;;;11.50;52.50;;;;;;20571;6757;302512;-73
2022/03/14 03:45:51;;;;;;;2.50;2.40;;;11.90;52.40;;;;;;20853;6747;120011;-76
2022/03/14 03:48:26;;;;;;;2.75;2.50;;;11.70;51.20;;;;;;20641;6753;304647;-74
2022/03/14 03:51:02;;;;;;;1.80;1.70;;;11.80;51.70;;;;;;20739;6734;117898;-74
2022/03/14 03:53:37;;;;;;;1.37;1.37;;;11.70;50.70;;;;;;20897;6737;117952;-75
2022/03/14 03:56:13;;;;;;;1.60;1.50;;;11.40;50.20;;;;;;20871;6754;117393;-74
2022/03/14 03:58:49;;;;;;;1.60;1.43;;;10.90;49.70;;;;;;20906;6721;117761;-77
2022/03/14 04:01:25;;;;;;;1.07;1.07;;;11.00;49.80;;;;;;20699;6749;122959;-73
2022/03/14 04:04:01;;;;;;;1.10;1.10;;;10.80;49.80;;;;;;20898;6739;116886;-74
2022/03/14 04:06:38;;;;;;;1.40;1.30;;;10.70;49.60;;;;;;20635;6739;278504;-74
2022/03/14 04:09:13;;;;;;;1.20;1.20;;;11.00;52.30;;;;;;20630;6754;306570;-77
2022/03/14 04:11:48;;;;;;;1.20;1.20;;;11.40;51.10;;;;;;20474;6753;278929;-75
2022/03/14 04:14:24;;;;;;;1.13;1.13;;;11.90;50.00;;;;;;20650;6746;306900;-73
2022/03/14 04:17:03;;;;;;;0.87;0.87;;;11.90;50.00;;;;;;20782;6766;118111;-78
2022/03/14 04:19:37;;;;;;;0.70;0.70;;;11.70;49.30;;;;;;20695;6729;305515;-76
2022/03/14 04:22:13;;;;;;;0.90;0.90;;;11.70;49.90;;;;;;20693;6800;117358;-73
2022/03/14 04:24:47;;;;;;;0.60;0.60;;;11.50;49.10;;;;;;20873;6741;116977;-75
2022/03/14 04:27:23;;;;;;;0.70;0.70;;;11.20;49.10;;;;;;20920;6715;120516;-75
2022/03/14 04:29:58;;;;;;;0.70;0.70;;;10.90;48.90;;;;;;20701;6723;337306;-73
2022/03/14 04:32:34;;;;;;;0.93;0.93;;;11.10;49.60;;;;;;20764;6771;117283;-74
2022/03/14 04:35:10;;;;;;;0.70;0.70;;;11.00;49.50;;;;;;20586;6762;277158;-73
2022/03/14 04:37:45;;;;;;;0.70;0.70;;;11.20;50.10;;;;;;20669;6737;306190;-75
2022/03/14 04:40:21;;;;;;;0.52;0.52;;;11.50;49.40;;;;;;20612;6745;315009;-73
2022/03/14 04:42:58;;;;;;;0.60;0.60;;;11.70;48.70;;;;;;20603;6749;307659;-73
2022/03/14 04:45:38;;;;;;;0.63;0.60;;;11.70;48.60;;;;;;20861;6747;117223;-74
2022/03/14 04:48:10;;;;;;;0.70;0.70;;;11.70;47.80;;;;;;20630;6751;306621;-77
2022/03/14 04:50:45;;;;;;;0.53;0.53;;;11.70;48.50;;;;;;20849;6732;120468;-72
2022/03/14 04:53:21;;;;;;;0.47;0.47;;;11.50;47.80;;;;;;20942;6715;116745;-75
2022/03/14 04:55:56;;;;;;;0.60;0.60;;;11.20;47.60;;;;;;20729;6726;308653;-74
2022/03/14 04:58:32;;;;;;;0.45;0.45;;;11.30;49.60;;;;;;20766;6715;284796;-77
2022/03/14 05:01:08;;;;;;;0.50;0.50;;;11.80;47.70;;;;;;20625;6715;312016;-76
2022/03/14 05:03:44;;;;;;;0.50;0.50;;;11.80;47.70;;;;;;20712;6730;308884;-73
2022/03/14 05:06:21;;;;;;;0.40;0.40;;;11.80;47.30;;;;;;20880;6717;124176;-72
2022/03/14 05:08:56;;;;;;;0.40;0.40;;;11.70;47.20;;;;;;20957;6712;117112;-72
2022/03/14 05:11:32;;;;;;;0.37;0.37;;;11.40;47.40;;;;;;20615;6712;305929;-69
2022/03/14 05:14:10;;;;;;;0.50;0.50;;;11.50;48.20;;;;;;20669;6736;306033;-68
2022/03/14 05:16:43;;;;;;;0.53;0.53;;;11.70;47.40;;;;;;20921;6736;117060;-69
2022/03/14 05:19:18;;;;;;;0.40;0.40;;;11.60;46.90;;;;;;20554;6762;282200;-68
2022/03/14 05:21:54;;;;;;;0.47;0.47;;;11.70;47.70;;;;;;20490;6729;308839;-68
2022/03/14 05:24:30;;;;;;;0.50;0.50;;;12.10;47.30;;;;;;20684;6736;277113;-67
2022/03/14 05:27:06;;;;;;;0.60;0.60;;;12.00;47.10;;;;;;20911;6724;116843;-68
2022/03/14 05:29:41;;;;;;;0.40;0.40;;;11.80;46.90;;;;;;20870;6744;116969;-69
2022/03/14 05:32:17;;;;;;;0.50;0.50;;;11.40;47.20;;;;;;20654;6743;306571;-68
2022/03/14 05:34:52;;;;;;;0.50;0.50;;;11.50;48.40;;;;;;20888;6741;116907;-69
2022/03/14 05:37:28;;;;;;;0.87;0.50;;;11.40;47.90;;;;;;20876;6736;117443;-69
2022/03/14 05:40:05;;;;;;;1.00;0.50;;;11.20;49.40;;;;;;20606;6736;315069;-72
2022/03/14 05:42:40;;;;;;;0.57;0.57;;;11.20;48.80;;;;;;20654;6749;336198;-68
2022/03/14 05:45:16;;;;;;;0.40;0.40;;;11.50;48.70;;;;;;20799;6759;121279;-69
2022/03/14 05:47:52;;;;;;;0.70;0.60;;;11.50;48.20;;;;;;20638;6749;302011;-69
2022/03/14 05:50:28;;;;;;;0.40;0.40;;;11.40;48.10;;;;;;20691;6778;121089;-71
2022/03/14 05:53:04;;;;;;;0.50;0.50;;;11.40;47.80;;;;;;20557;6764;307607;-68
2022/03/14 05:55:40;;;;;;;0.63;0.43;;;11.30;47.70;;;;;;20712;6721;275768;-67
2022/03/14 05:58:15;;;;;;;0.60;0.60;;;11.60;47.10;;;;;;20945;6721;116964;-67
2022/03/14 06:00:52;;;;;;;0.40;0.40;;;11.40;46.60;;;;;;20776;6749;117005;-68
2022/03/14 06:03:30;;;;;;;0.70;0.50;;;11.10;47.40;;;;;;20684;6732;342741;-68
2022/03/14 06:06:03;;;;;;;0.50;0.50;;;11.20;47.50;;;;;;20912;6734;117021;-66
2022/03/14 06:08:38;;;;;;;0.60;0.60;;;11.00;46.70;;;;;;20853;6749;117003;-68
2022/03/14 06:11:14;;;;;;;0.40;0.40;;;10.70;46.70;;;;;;20583;6734;337998;-72
2022/03/14 06:13:53;;;;;;;0.60;0.60;;;10.80;47.50;;;;;;20722;6719;299444;-69
2022/03/14 06:16:25;;;;;;;0.60;0.60;;;11.20;47.40;;;;;;20614;6747;277629;-69
2022/03/14 06:19:01;;;;;;;0.50;0.50;;;11.60;46.30;;;;;;20699;6734;275601;-69
2022/03/14 06:21:39;;;;;;;0.40;0.40;;;11.60;46.30;;;;;;20561;6735;336555;-72
2022/03/14 06:24:13;;;;;;;1.10;0.50;;;11.70;46.00;;;;;;20710;6727;280559;-72
2022/03/14 06:26:48;;;;;;;0.30;0.30;;;11.80;45.60;;;;;;20919;6727;116920;-73
2022/03/14 06:29:24;;;;;;;0.60;0.60;;;11.50;45.50;;;;;;20903;6727;118602;-72
2022/03/14 06:31:59;;;;;;;0.53;0.50;;;11.10;45.80;;;;;;20751;6727;117333;-73
2022/03/14 06:34:35;;;;;;;0.50;0.50;;;10.80;46.20;;;;;;20708;6731;285802;-71
2022/03/14 06:37:11;;;;;;;0.50;0.50;;;10.90;47.00;;;;;;20842;6746;120812;-68
2022/03/14 06:39:46;;;;;;;0.47;0.47;;;10.80;46.50;;;;;;20961;6712;117285;-68
2022/03/14 06:42:23;;;;;;;1.23;0.50;;;10.60;46.60;;;;;;20946;6721;116906;-68
2022/03/14 06:45:02;;;;;;;0.40;0.40;;;10.50;46.80;;;;;;20972;6712;116704;-71
2022/03/14 06:47:34;;;;;;;0.40;0.40;;;10.40;46.90;;;;;;20974;6712;117415;-70
2022/03/14 06:50:09;;;;;;;0.53;0.53;;;10.30;46.90;;;;;;20945;6712;117247;-71
2022/03/14 06:52:45;;;;;;;0.60;0.60;;;10.60;48.00;;;;;;20724;6721;321565;-71
2022/03/14 06:55:21;;;;;;;0.53;0.53;;;10.60;48.00;;;;;;20947;6712;116919;-71
2022/03/14 06:57:56;;;;;;;0.43;0.43;;;10.70;47.30;;;;;;20959;6712;116748;-70
2022/03/14 07:00:32;;;;;;;0.47;0.47;;;10.90;48.10;;;;;;20655;6727;307020;-70
2022/03/14 07:03:08;;;;;;;0.50;0.50;;;10.90;48.10;;;;;;20898;6728;127804;-71
2022/03/14 07:05:44;;;;;;;0.33;0.33;;;10.90;47.40;;;;;;20918;6727;117167;-72
2022/03/14 07:08:20;;;;;;;1.15;0.50;;;10.80;47.30;;;;;;20701;6727;305595;-72
2022/03/14 07:10:56;;;;;;;0.40;0.40;;;11.20;47.10;;;;;;20880;6712;116826;-71
2022/03/14 07:13:31;;;;;;;0.50;0.40;;;11.10;47.00;;;;;;20685;6727;306692;-70
2022/03/14 07:16:07;;;;;;;0.50;0.50;;;11.40;47.00;;;;;;20668;6727;305787;-70
2022/03/14 07:18:43;;;;;;;0.87;0.67;;;11.80;46.40;;;;;;20894;6736;120785;-70
2022/03/14 07:21:18;;;;;;;0.50;0.50;;;11.80;45.90;;;;;;20774;6727;120554;-70
2022/03/14 07:23:55;;;;;;;0.50;0.50;;;11.80;46.60;;;;;;20679;6736;318645;-70
2022/03/14 07:26:30;;;;;;;0.40;0.40;;;11.80;46.60;;;;;;20891;6736;116949;-70
2022/03/14 07:29:05;;;;;;;0.53;0.53;;;11.70;46.10;;;;;;20904;6727;116828;-71
2022/03/14 07:31:41;;;;;;;0.70;0.70;;;11.50;46.00;;;;;;20795;6727;117458;-70
2022/03/14 07:34:17;;;;;;;0.45;0.45;;;11.50;46.90;;;;;;20748;6712;333613;-70
2022/03/14 07:36:53;;;;;;;0.60;0.60;;;11.50;46.90;;;;;;20995;6712;117343;-70
2022/03/14 07:39:29;;;;;;;0.60;0.60;;;11.50;46.40;;;;;;20909;6727;116789;-70
2022/03/14 07:42:04;;;;;;;0.80;0.80;;;11.20;46.30;;;;;;20771;6727;117203;-70
2022/03/14 07:44:40;;;;;;;0.80;0.73;;;11.10;46.70;;;;;;20687;6736;276853;-70
2022/03/14 07:47:15;;;;;;;0.55;0.55;;;11.40;47.80;;;;;;20661;6736;340090;-70
2022/03/14 07:49:51;;;;;;;0.70;0.70;;;12.00;47.50;;;;;;20921;6727;123092;-67
2022/03/14 07:52:27;;;;;;;0.60;0.57;;;12.10;46.70;;;;;;20891;6736;116889;-67
2022/03/14 07:55:03;;;;;;;2.00;0.70;;;12.10;46.70;;;;;;20926;6722;116814;-72
2022/03/14 07:57:39;;;;;;;0.67;0.67;;;12.20;46.70;;;;;;20937;6722;116974;-72
2022/03/14 08:00:15;;;;;;;0.93;0.70;;;12.20;46.70;;;;;;20882;6727;117381;-73
2022/03/14 08:02:50;;;;;;;0.40;0.40;;;12.30;46.70;;;;;;20897;6736;123083;-75
2022/03/14 08:05:26;;;;;;;0.60;0.60;;;12.40;46.40;;;;;;20923;6721;116870;-73
2022/03/14 08:08:03;;;;;;;2.00;0.40;;;12.50;46.30;;;;;;20967;6712;116803;-73
2022/03/14 08:10:41;;;;;;;0.90;0.50;;;12.60;46.30;;;;;;20689;6712;335722;-76
2022/03/14 08:13:13;;;;;;;0.60;0.50;;;13.00;45.20;;;;;;20925;6721;123108;-71
2022/03/14 08:15:48;;;;;;;0.50;0.50;;;13.20;44.60;;;;;;20967;6712;117005;-71
2022/03/14 08:18:28;;;;;;;0.40;0.40;;;13.10;44.50;;;;;;20937;6721;117435;-69
2022/03/14 08:21:00;;;;;;;0.70;0.70;;;13.00;44.40;;;;;;20628;6712;306443;-69
2022/03/14 08:23:36;;;;;;;1.63;0.53;;;13.30;43.20;;;;;;20966;6712;116934;-71
2022/03/14 08:26:11;;;;;;;1.25;0.77;;;13.40;43.20;;;;;;20759;6712;309904;-71
2022/03/14 08:28:47;;;;;;;1.23;0.67;;;13.70;43.20;;;;;;20759;6712;275491;-73
2022/03/14 08:31:23;;;;;;;1.20;0.60;;;14.20;43.50;;;;;;20610;6721;279160;-72
2022/03/14 08:33:58;;;;;;;0.50;0.50;;;14.70;41.90;;;;;;20871;6736;117509;-71
2022/03/14 08:36:36;;;;;;;1.17;0.60;;;14.70;40.70;;;;;;20665;6736;281172;-71
2022/03/14 08:39:12;;;;;;;1.10;0.70;;;14.80;40.40;;;;;;20643;6736;307386;-71
2022/03/14 08:41:49;;;;;;;0.97;0.60;;;14.80;39.70;;;;;;20783;6721;117552;-71
2022/03/14 08:44:24;;;;;;;2.57;0.77;;;14.50;40.10;;;;;;20933;6727;121509;-71
2022/03/14 08:47:00;;;;;;;1.10;0.68;;;14.00;40.60;;;;;;20715;6721;304026;-73
2022/03/14 08:49:37;;;;;;;0.60;0.60;;;14.00;40.50;;;;;;20884;6738;117591;-71
2022/03/14 08:52:12;;;;;;;1.65;1.30;;;13.90;40.70;;;;;;20446;6812;308559;-71
2022/03/14 08:54:47;;;;;;;0.50;0.50;;;14.20;41.40;;;;;;20847;6751;117410;-71
2022/03/14 08:57:23;;;;;;;1.40;0.90;;;14.40;40.90;;;;;;20638;6747;310045;-71
2022/03/14 08:59:59;;;;;;;1.17;0.70;;;15.10;38.30;;;;;;20700;6727;304289;-71
2022/03/14 09:02:35;;;;;;;1.67;0.80;;;15.00;37.50;;;;;;20964;6713;117206;-71
2022/03/14 09:05:10;;;;;;;0.57;0.57;;;15.00;38.40;;;;;;20903;6727;117320;-70
2022/03/14 09:07:46;;;;;;;0.97;0.70;;;14.70;38.00;;;;;;20921;6727;117116;-71
2022/03/14 09:10:21;;;;;;;1.87;0.80;;;14.30;38.20;;;;;;20732;6712;311097;-71
2022/03/14 09:12:58;;;;;;;1.67;0.90;;;14.30;37.80;;;;;;20758;6712;304736;-75
2022/03/14 09:15:33;;;;;;;1.33;0.80;;;14.60;37.40;;;;;;20741;6712;304645;-72
2022/03/14 09:18:08;;;;;;;1.03;0.70;;;14.70;36.80;;;;;;20929;6727;116980;-72
2022/03/14 09:20:46;;;;;;;1.75;0.80;;;14.60;38.10;;;;;;20641;6727;329312;-72
2022/03/14 09:23:21;;;;;;;1.93;0.70;;;14.60;38.10;;;;;;20908;6727;117026;-71
2022/03/14 09:25:57;;;;;;;1.10;0.80;;;14.70;38.90;;;;;;20922;6727;116931;-72
2022/03/14 09:28:31;;;;;;;1.17;0.60;;;14.80;39.00;;;;;;20955;6712;120727;-71
2022/03/14 09:31:07;;;;;;;1.33;0.80;;;14.80;38.70;;;;;;20550;6735;337938;-72
2022/03/14 09:33:43;;;;;;;1.50;0.80;;;15.00;39.00;;;;;;20966;6709;117532;-73
2022/03/14 09:36:18;;;;;;;1.15;0.70;;;15.30;38.60;;;;;;20606;6752;277657;-73
2022/03/14 09:38:54;;;;;;;2.70;1.40;;;15.60;39.10;;;;;;20810;6773;117742;-73
2022/03/14 09:41:29;;;;;;;2.17;0.80;;;15.90;38.70;;;;;;20716;6756;117799;-74
2022/03/14 09:44:06;;;;;;;1.33;0.70;;;16.10;38.60;;;;;;20858;6739;117712;-73
2022/03/14 09:46:41;;;;;;;2.73;0.93;;;16.20;38.20;;;;;;20889;6748;116995;-77
2022/03/14 09:49:18;;;;;;;0.70;0.70;;;16.40;36.40;;;;;;20662;6733;286460;-72
2022/03/14 09:51:55;;;;;;;1.27;0.60;;;16.60;36.00;;;;;;20727;6733;117118;-72
2022/03/14 09:54:30;;;;;;;1.23;0.77;;;16.50;35.90;;;;;;20635;6752;290864;-72
2022/03/14 09:57:09;;;;;;;0.80;0.77;;;16.60;34.50;;;;;;20620;6747;314465;-72
2022/03/14 09:59:41;;;;;;;1.00;0.77;;;16.70;33.70;;;;;;20715;6727;334567;-72
2022/03/14 10:02:17;;;;;;;0.73;0.60;;;16.80;32.90;;;;;;20822;6757;118225;-71
2022/03/14 10:04:52;;;;;;;1.53;0.80;;;16.50;33.60;;;;;;20915;6731;116921;-72
2022/03/14 10:07:28;;;;;;;0.70;0.67;;;16.10;34.10;;;;;;20883;6736;118731;-72
2022/03/14 10:10:04;;;;;;;1.20;0.90;;;15.80;34.70;;;;;;20647;6736;284578;-72
2022/03/14 10:12:42;;;;;;;1.20;0.70;;;16.00;34.20;;;;;;20652;6754;306163;-71
2022/03/14 10:15:15;;;;;;;1.87;1.00;;;16.40;34.20;;;;;;20652;6739;281226;-74
2022/03/14 10:17:51;;;;;;;1.00;0.70;;;16.70;33.70;;;;;;20881;6739;120778;-72
2022/03/14 10:20:27;;;;;;;2.00;0.70;;;16.70;34.40;;;;;;20828;6739;117476;-72
2022/03/14 10:23:08;;;;;;;1.70;0.80;;;16.70;34.30;;;;;;20885;6729;117065;-72
2022/03/14 10:25:47;;;;;;;1.00;0.70;;;16.60;34.30;;;;;;20946;6726;116973;-72
2022/03/14 10:28:14;;;;;;;1.17;0.70;;;16.50;34.60;;;;;;20913;6727;121101;-70
2022/03/14 10:30:52;;;;;;;2.03;1.00;;;16.50;34.50;;;;;;20654;6727;311974;-71
2022/03/14 10:33:25;;;;;;;1.10;0.77;;;16.80;34.00;;;;;;20845;6738;124101;-73
2022/03/14 10:36:04;;;;;;;1.70;1.08;;;17.00;34.10;;;;;;20689;6728;276905;-72
2022/03/14 10:38:44;;;;;;;1.77;1.03;;;17.30;33.60;;;;;;20893;6726;117052;-74
2022/03/14 10:41:20;;;;;;;1.10;1.00;;;17.30;32.90;;;;;;20710;6754;117971;-74
2022/03/14 10:43:55;;;;;;;1.63;0.80;;;17.30;32.80;;;;;;20886;6744;116850;-74
2022/03/14 10:46:31;;;;;;;0.90;0.70;;;17.20;32.80;;;;;;20902;6736;117399;-71
2022/03/14 10:49:10;;;;;;;1.10;0.90;;;17.10;32.60;;;;;;20856;6750;120634;-71
2022/03/14 10:51:53;;;;;;;2.87;1.08;;;17.00;32.40;;;;;;20472;6762;342288;-70
2022/03/14 10:54:28;;;;;;;1.93;1.03;;;17.20;31.10;;;;;;20843;6743;117369;-70
2022/03/14 10:57:03;;;;;;;1.17;1.03;;;17.30;31.30;;;;;;20799;6759;123349;-71
2022/03/14 10:59:39;;;;;;;1.33;0.80;;;17.10;31.50;;;;;;20619;6753;311343;-71
2022/03/14 11:02:16;;;;;;;1.00;0.90;;;17.20;30.30;;;;;;20665;6809;120582;-70
2022/03/14 11:04:50;;;;;;;1.97;1.30;;;17.30;31.10;;;;;;20888;6737;116797;-70
2022/03/14 11:07:31;;;;;;;3.07;0.97;;;17.10;31.00;;;;;;20878;6736;125735;-69
2022/03/14 11:10:06;;;;;;;2.50;1.30;;;17.20;30.90;;;;;;20663;6732;307514;-72
2022/03/14 11:12:41;;;;;;;1.40;0.90;;;17.20;30.90;;;;;;20858;6751;116773;-70
2022/03/14 11:15:17;;;;;;;2.20;1.30;;;17.30;30.90;;;;;;20626;6748;307192;-69
2022/03/14 11:17:52;;;;;;;0.90;0.80;;;17.50;30.50;;;;;;20847;6749;116820;-73
2022/03/14 11:20:28;;;;;;;1.80;1.00;;;17.60;30.70;;;;;;20809;6749;116824;-69
2022/03/14 11:23:07;;;;;;;1.60;1.20;;;17.50;30.60;;;;;;20913;6724;117345;-69
2022/03/14 11:25:46;;;;;;;1.70;0.97;;;17.20;31.20;;;;;;20933;6724;116977;-70
2022/03/14 11:28:22;;;;;;;1.23;1.00;;;17.20;31.10;;;;;;20749;6724;275908;-70
2022/03/14 11:30:58;;;;;;;2.00;1.10;;;17.50;30.70;;;;;;20833;6727;117196;-74
2022/03/14 11:33:35;;;;;;;2.10;1.17;;;17.70;30.60;;;;;;20891;6738;117166;-70
2022/03/14 11:36:11;;;;;;;1.50;0.83;;;17.60;30.90;;;;;;20844;6753;117639;-72
2022/03/14 11:38:46;;;;;;;1.83;0.73;;;17.60;30.90;;;;;;20888;6736;117004;-71
2022/03/14 11:41:21;;;;;;;2.90;1.03;;;17.50;30.50;;;;;;20800;6732;121275;-74
2022/03/14 11:43:58;;;;;;;1.48;1.08;;;17.60;29.10;;;;;;20689;6733;305440;-73
2022/03/14 11:46:35;;;;;;;1.30;1.13;;;17.60;29.10;;;;;;20651;6740;335464;-72
2022/03/14 11:49:10;;;;;;;1.40;0.97;;;17.90;28.60;;;;;;20862;6740;127449;-73
2022/03/14 11:51:45;;;;;;;1.27;0.80;;;17.90;29.00;;;;;;20710;6747;117459;-72
2022/03/14 11:54:20;;;;;;;2.47;1.10;;;17.70;29.10;;;;;;20618;6753;340154;-73
2022/03/14 11:56:56;;;;;;;1.17;1.00;;;18.00;29.00;;;;;;20674;6738;279530;-73
2022/03/14 11:59:32;;;;;;;1.53;1.17;;;18.00;28.70;;;;;;20660;6738;276430;-72
2022/03/14 12:02:08;;;;;;;1.73;1.10;;;18.20;28.10;;;;;;20474;6741;295981;-74
2022/03/14 12:04:43;;;;;;;1.95;1.10;;;18.40;28.30;;;;;;20581;6756;336682;-74
2022/03/14 12:07:19;;;;;;;1.47;0.90;;;18.60;27.90;;;;;;20810;6750;121080;-72
2022/03/14 12:09:55;;;;;;;1.73;1.00;;;18.50;28.50;;;;;;20817;6756;117484;-73
2022/03/14 12:12:34;;;;;;;1.60;1.05;;;18.20;28.10;;;;;;20626;6753;278177;-72
2022/03/14 12:15:08;;;;;;;2.35;1.00;;;18.20;28.10;;;;;;20637;6752;276359;-74
2022/03/14 12:17:45;;;;;;;1.17;0.70;;;18.40;28.50;;;;;;20878;6740;117493;-75
2022/03/14 12:20:22;;;;;;;0.97;0.70;;;18.40;28.70;;;;;;20876;6729;117308;-73
2022/03/14 12:22:57;;;;;;;1.37;0.83;;;18.10;28.80;;;;;;20869;6744;117035;-74
2022/03/14 12:25:39;;;;;;;2.70;1.30;;;17.80;29.10;;;;;;20633;6747;309458;-74
2022/03/14 12:28:24;;;;;;;3.08;1.10;;;18.00;28.50;;;;;;20660;6744;294148;-73
2022/03/14 12:31:03;;;;;;;2.33;0.90;;;18.20;27.80;;;;;;20818;6729;118265;-76
2022/03/14 12:33:40;;;;;;;1.15;1.02;;;18.20;28.30;;;;;;20699;6729;306137;-71
2022/03/14 12:36:22;;;;;;;1.47;1.03;;;18.20;28.10;;;;;;20920;6729;116828;-72
2022/03/14 12:39:06;;;;;;;1.27;0.90;;;17.90;28.60;;;;;;20867;6744;116938;-72
2022/03/14 12:41:41;;;;;;;2.90;0.93;;;17.90;28.50;;;;;;20745;6744;117435;-73
2022/03/14 12:44:26;;;;;;;2.10;1.20;;;17.70;28.90;;;;;;20606;6756;306836;-71
2022/03/14 12:47:06;;;;;;;1.30;0.93;;;18.20;28.30;;;;;;20579;6762;277244;-73
2022/03/14 12:49:37;;;;;;;1.27;1.02;;;18.20;27.80;;;;;;20649;6746;294992;-73
2022/03/14 12:52:13;;;;;;;1.17;1.00;;;18.40;27.20;;;;;;20631;6818;117361;-70
2022/03/14 12:54:49;;;;;;;1.50;0.80;;;18.30;27.70;;;;;;20708;6732;276648;-69
2022/03/14 12:57:25;;;;;;;1.57;0.83;;;18.30;27.70;;;;;;20891;6732;119090;-69
2022/03/14 13:00:01;;;;;;;1.10;0.90;;;18.20;27.80;;;;;;20832;6750;117304;-69
2022/03/14 13:02:36;;;;;;;1.40;0.80;;;17.90;28.00;;;;;;20793;6766;117412;-71
2022/03/14 13:05:12;;;;;;;1.20;1.10;;;17.80;28.70;;;;;;20597;6757;275981;-71
2022/03/14 13:08:02;;;;;;;1.10;0.90;;;17.80;28.40;;;;;;20615;6768;336832;-71
2022/03/14 13:10:43;;;;;;;1.43;1.10;;;18.20;28.10;;;;;;20863;6723;117473;-72
2022/03/14 13:13:25;;;;;;;0.93;0.80;;;18.10;28.20;;;;;;20916;6723;117096;-70
2022/03/14 13:16:08;;;;;;;1.37;1.13;;;17.90;28.30;;;;;;20852;6747;116964;-70
2022/03/14 13:18:49;;;;;;;1.60;1.17;;;17.70;28.40;;;;;;20733;6725;304530;-69